VVCI

Details ICAO VVCI (HPH)
Name HAIPHONG CATBI
Region Vietnam
Timezone Asia/Ho_Chi_Minh (UTC+7.0)
Plans Departing 14
Arriving 22
Stats Elevation 6 ft / 2 m (AMSL)
Location 20.819386° 106.724990°
Runways 1
Magnetic Variation 1.566° W
Sunrise 2018-05-21 22:14:58 UTC / 2018-05-22 05:14:58 Local
Sunset 2018-05-22 11:27:23 UTC / 2018-05-22 18:27:23 Local
Advertisement - Login to hide

Runways

ID Width Length Bearing (true) Bearing (mag) Surface Threshold Offset Overrun Length
07 164 ft / 50 m 7,879 ft / 2,402 m 72.18° 73.75° Asphalt 0 ft / 0 m 0 ft / 0 m
25 164 ft / 50 m 7,879 ft / 2,402 m 252.19° 253.76° Asphalt 0 ft / 0 m 0 ft / 0 m

Map

Weather


0- 5 10 15 20 25 30 35+ Temperature / ° C

Clouds and Precipitation
Forecast for 2018-05-22 00:00 UTC. Updated a few seconds ago

Ground ~20,000 ft ~40,000 ft Winds

METAR

VVCI 212300Z 19003KT 9999 FEW018 27/25 Q1009 NOSIG

TAF

TAF VVCI 211700Z 2118/2218 16008KT 9999 FEW020 TEMPO 2209/2213 VRB15G25KT 4000 TSRA SCT015 FEW030CB
Warning: Do not use this data for real-world aviation or navigation. No guarantee of current accuracy is given.